Home   Weather   USA   Sperryville   Past weeks
Flag for USA

Past Weather in Sperryville, Virginia, USA — Yesterday and Last 2 Weeks

Currently: 66 °F. Clear. (Weather station: warren County Airport, USA). See more current weather

Past Weather in Sperryville — Graph

°F

Sperryville Temperature Yesterday

Maximum temperature yesterday: 82 °F (at 2:15 pm)
Minimum temperature yesterday: 55 °F (at 3:55 am)
Average temperature yesterday: 68 °F

High & Low Weather Summary for the Past Weeks

 TemperatureHumidityPressure
High93 °F (Jul 26, 4:55 pm)100% (Jul 21, 3:55 am)30.23 "Hg (Jul 21, 3:55 am)
Low55 °F (Aug 3, 3:55 am)29% (Jul 27, 6:55 pm)29.80 "Hg (Jul 30, 2:15 am)
Average74 °F69%30.01 "Hg
* Reported Jul 20 9:15 pm — Aug 4 9:35 pm, Sperryville. Weather by CustomWeather, © 2021

Note: Actual official high and low records may vary slightly from our data, if they occured in-between our weather recording intervals... More about our weather records

Sperryville Weather History for the Previous 24 Hours

Scroll right to see more
 ConditionsComfort  
Time TempWeatherWind HumidityBarometerVisibility
9:35 pm
Wed, Aug 4
68 °FClear.No wind64%30.11 "Hg10 mi
9:15 pm70 °FClear.No wind57%30.11 "Hg10 mi
8:55 pm70 °FClear.No wind57%30.09 "Hg10 mi
8:35 pm72 °FClear.No wind53%30.09 "Hg10 mi
8:15 pm73 °FSunny.No wind50%30.09 "Hg10 mi
7:35 pm77 °FSunny.5 mph44%30.08 "Hg10 mi
7:15 pm79 °FSunny.5 mph42%30.08 "Hg10 mi
6:55 pm79 °FSunny.5 mph42%30.08 "Hg10 mi
6:35 pm81 °FSunny.5 mph39%30.08 "Hg10 mi
6:15 pm81 °FScattered clouds.3 mph39%30.08 "Hg10 mi
5:55 pm81 °FScattered clouds.No wind39%30.08 "Hg10 mi
5:35 pm81 °FScattered clouds.3 mph39%30.08 "Hg10 mi
5:15 pm82 °FScattered clouds.5 mph37%30.08 "Hg10 mi
4:55 pm82 °FScattered clouds.6 mph37%30.08 "Hg10 mi
4:35 pm81 °FScattered clouds.3 mph39%30.08 "Hg10 mi
4:15 pm82 °FScattered clouds.7 mph37%30.08 "Hg10 mi
3:35 pm82 °FSunny.3 mph37%30.09 "Hg10 mi
3:15 pm82 °FSunny.3 mph37%30.10 "Hg10 mi
2:55 pm81 °FScattered clouds.6 mph37%30.10 "Hg10 mi
2:35 pm81 °FSunny.6 mph39%30.10 "Hg10 mi
2:15 pm81 °FSunny.5 mph39%30.10 "Hg10 mi
1:55 pm81 °FSunny.5 mph37%30.11 "Hg10 mi
1:35 pm79 °FSunny.6 mph39%30.11 "Hg10 mi
1:15 pm81 °FSunny.5 mph37%30.12 "Hg10 mi
12:55 pm79 °FScattered clouds.6 mph39%30.12 "Hg10 mi
12:35 pm79 °FPartly sunny.8 mph45%30.12 "Hg10 mi
12:15 pm79 °FPartly sunny.6 mph48%30.12 "Hg10 mi
11:55 am77 °FScattered clouds.6 mph51%30.13 "Hg10 mi
11:35 am77 °FScattered clouds.9 mph51%30.13 "Hg10 mi
11:15 am75 °FSunny.6 mph50%30.13 "Hg10 mi
10:35 am73 °FSunny.3 mph65%30.13 "Hg10 mi
10:15 am72 °FSunny.3 mph69%30.13 "Hg10 mi
9:35 am68 °FSunny.No wind78%30.13 "Hg10 mi
8:55 am64 °FSunny.No wind88%30.13 "Hg10 mi
8:35 am63 °FSunny.No wind94%30.13 "Hg10 mi
8:15 am63 °FSunny.No wind94%30.12 "Hg10 mi
7:55 am61 °FSunny.No wind100%30.12 "Hg10 mi
7:35 am61 °FSunny.No wind100%30.11 "Hg10 mi
7:15 am59 °FSunny.No wind100%30.11 "Hg10 mi
6:35 am59 °FSunny.No wind100%30.10 "Hg10 mi
6:15 am59 °FClear.No wind100%30.09 "Hg10 mi
5:55 am59 °FPassing clouds.No wind100%30.09 "Hg10 mi
5:35 am61 °FOvercast.No wind94%30.08 "Hg10 mi
5:15 am61 °FOvercast.No wind100%30.08 "Hg10 mi
4:55 am61 °FOvercast.No wind100%30.08 "Hg10 mi
4:35 am61 °FOvercast.No wind94%30.09 "Hg10 mi
4:15 am63 °FOvercast.No wind94%30.08 "Hg10 mi
3:55 am63 °FOvercast.No wind94%30.09 "Hg10 mi
3:35 am61 °FOvercast.No wind100%30.09 "Hg10 mi
3:15 am61 °FPassing clouds.No wind94%30.09 "Hg10 mi
2:55 am63 °FPassing clouds.No wind94%30.09 "Hg10 mi
2:35 am61 °FClear.No wind94%30.09 "Hg10 mi
2:15 am61 °FPassing clouds.No wind94%30.09 "Hg10 mi
1:55 am64 °FPassing clouds.No wind83%30.09 "Hg10 mi
1:35 am63 °FClear.No wind88%30.09 "Hg10 mi
1:15 am63 °FPassing clouds.No wind88%30.09 "Hg10 mi
12:55 am64 °FPassing clouds.No wind83%30.09 "Hg10 mi
12:35 am68 °FPassing clouds.3 mph73%30.09 "Hg10 mi
12:15 am68 °FOvercast.No wind73%30.09 "Hg10 mi
11:55 pm
Tue, Aug 3
66 °FOvercast.3 mph78%30.09 "Hg10 mi
11:35 pm68 °FPassing clouds.No wind73%30.08 "Hg10 mi
11:15 pm66 °FClear.No wind78%30.09 "Hg10 mi
10:55 pm70 °FPassing clouds.No wind69%30.09 "Hg10 mi
10:35 pm70 °FPassing clouds.No wind69%30.09 "Hg10 mi
10:15 pm70 °FPassing clouds.No wind73%30.08 "Hg10 mi
Weather by CustomWeather, © 2021

See weather overview